Time;durP1;ratioP1;P1;durP2;ratioP2;P2;SDS_P1;SDS_P2;PMS_P1;PMS_P2;Temp;Humidity;BMP_temperature;BMP_pressure;BME280_temperature;BME280_humidity;BME280_pressure;Samples;Min_cycle;Max_cycle;Signal;HPM_P1;HPM_P2
2022/06/29 00:02:18;;;;;;;2.78;0.60;;;17.50;98.80;;;;;;5015902;28;20026;-86
2022/06/29 00:04:44;;;;;;;3.05;0.50;;;17.50;98.90;;;;;;5015601;28;20018;-86
2022/06/29 00:07:09;;;;;;;3.67;0.68;;;17.60;98.80;;;;;;5015608;28;20022;-86
2022/06/29 00:09:35;;;;;;;3.22;0.60;;;17.60;98.80;;;;;;5015973;28;20072;-86
2022/06/29 00:12:00;;;;;;;1.48;0.57;;;17.60;99.00;;;;;;5015683;28;20029;-86
2022/06/29 00:14:26;;;;;;;2.10;0.50;;;17.50;99.00;;;;;;5015374;28;20028;-87
2022/06/29 00:16:52;;;;;;;3.35;0.60;;;17.50;99.10;;;;;;5031993;28;20117;-86
2022/06/29 00:19:17;;;;;;;5.55;0.60;;;17.50;99.30;;;;;;5016574;28;20030;-86
2022/06/29 00:21:43;;;;;;;3.22;0.73;;;17.50;99.40;;;;;;5032188;28;20022;-86
2022/06/29 00:24:08;;;;;;;3.53;0.60;;;17.40;99.50;;;;;;5030578;28;20034;-86
2022/06/29 00:26:34;;;;;;;2.53;0.70;;;17.40;99.70;;;;;;5031812;28;20022;-86
2022/06/29 00:29:00;;;;;;;5.40;0.82;;;17.40;99.90;;;;;;5031816;28;20057;-85
2022/06/29 00:31:25;;;;;;;4.95;1.05;;;17.30;99.90;;;;;;5031801;28;20033;-86
2022/06/29 00:33:51;;;;;;;4.95;0.90;;;17.30;99.90;;;;;;5031721;28;20030;-86
2022/06/29 00:36:16;;;;;;;4.20;0.80;;;17.20;99.90;;;;;;5031275;28;20053;-86
2022/06/29 00:38:42;;;;;;;5.35;0.60;;;17.10;99.90;;;;;;5031574;28;20041;-86
2022/06/29 00:41:07;;;;;;;2.25;0.80;;;17.00;99.90;;;;;;5031535;28;20470;-86
2022/06/29 00:43:42;;;;;;;2.70;0.95;;;16.90;99.90;;;;;;5031681;28;20479;-86
2022/06/29 00:46:08;;;;;;;3.55;0.77;;;16.90;99.90;;;;;;5031526;28;20033;-86
2022/06/29 00:48:35;;;;;;;3.92;0.80;;;16.80;99.90;;;;;;5031377;28;20022;-86
2022/06/29 00:51:03;;;;;;;3.35;0.70;;;16.70;99.90;;;;;;5031410;28;20022;-85
2022/06/29 00:53:32;;;;;;;2.00;0.73;;;16.70;99.90;;;;;;5031425;28;20026;-86
2022/06/29 00:56:01;;;;;;;3.22;0.80;;;16.60;99.90;;;;;;5031203;28;20048;-86
2022/06/29 00:58:28;;;;;;;6.88;1.27;;;16.50;99.90;;;;;;5015859;28;20038;-86
2022/06/29 01:00:55;;;;;;;4.15;0.80;;;16.50;99.90;;;;;;5031314;28;20045;-86
2022/06/29 01:03:21;;;;;;;4.25;1.17;;;16.40;99.90;;;;;;5031074;28;20037;-86
2022/06/29 01:05:47;;;;;;;3.60;1.08;;;16.30;99.90;;;;;;5031107;28;20018;-86
2022/06/29 01:08:13;;;;;;;7.90;1.10;;;16.20;99.90;;;;;;5031022;28;20033;-86
2022/06/29 01:10:38;;;;;;;3.47;0.88;;;16.20;99.90;;;;;;5030919;28;20030;-84
2022/06/29 01:13:04;;;;;;;3.15;0.88;;;16.10;99.90;;;;;;5015438;28;20022;-86
2022/06/29 01:15:29;;;;;;;3.67;1.20;;;16.10;99.90;;;;;;5015367;28;20165;-86
2022/06/29 01:17:55;;;;;;;2.80;0.90;;;16.10;99.90;;;;;;5014188;28;20080;-86
2022/06/29 01:20:20;;;;;;;3.05;1.10;;;16.00;99.90;;;;;;5015270;28;20092;-86
2022/06/29 01:22:46;;;;;;;5.07;1.13;;;15.90;99.90;;;;;;5015425;28;20022;-86
2022/06/29 01:25:12;;;;;;;1.70;0.95;;;15.90;99.90;;;;;;5015302;28;20034;-86
2022/06/29 01:27:38;;;;;;;4.13;0.95;;;15.90;99.90;;;;;;5014323;28;20022;-86
2022/06/29 01:30:07;;;;;;;6.90;2.05;;;15.80;99.90;;;;;;5015474;28;20077;-86
2022/06/29 01:32:33;;;;;;;4.55;1.00;;;15.70;99.90;;;;;;5014888;28;20037;-86
2022/06/29 01:34:58;;;;;;;6.03;1.10;;;15.70;99.90;;;;;;5013879;28;20034;-86
2022/06/29 01:37:24;;;;;;;2.85;1.30;;;15.60;99.90;;;;;;5032172;28;20049;-86
2022/06/29 01:39:50;;;;;;;6.82;1.63;;;15.60;99.90;;;;;;5017329;28;20125;-86
2022/06/29 01:42:15;;;;;;;3.03;1.20;;;15.60;99.90;;;;;;5017421;28;20109;-86
2022/06/29 01:44:41;;;;;;;3.72;1.70;;;15.50;99.90;;;;;;5017218;28;20122;-86
2022/06/29 01:47:06;;;;;;;4.45;1.48;;;15.50;99.90;;;;;;5016920;28;20025;-86
2022/06/29 01:49:32;;;;;;;2.97;1.20;;;15.40;99.90;;;;;;5017398;28;20025;-86
2022/06/29 01:51:58;;;;;;;2.88;1.20;;;15.40;99.90;;;;;;5017364;28;20017;-86
2022/06/29 01:54:24;;;;;;;3.30;1.10;;;15.30;99.90;;;;;;5017315;28;20103;-86
2022/06/29 01:56:49;;;;;;;3.38;1.60;;;15.20;99.90;;;;;;5016775;28;20093;-86
2022/06/29 01:59:15;;;;;;;3.83;1.20;;;15.20;99.90;;;;;;5016883;28;20122;-86
2022/06/29 02:01:40;;;;;;;3.22;1.55;;;15.10;99.90;;;;;;5016900;28;20512;-86
2022/06/29 02:04:06;;;;;;;3.00;1.70;;;15.10;99.90;;;;;;5016971;28;20025;-86
2022/06/29 02:06:32;;;;;;;4.68;2.08;;;15.10;99.90;;;;;;5034174;28;20021;-86
2022/06/29 02:08:58;;;;;;;4.75;2.08;;;15.00;99.90;;;;;;5033143;28;20021;-86
2022/06/29 02:11:24;;;;;;;3.15;1.75;;;15.00;99.90;;;;;;5016701;28;20113;-86
2022/06/29 02:13:50;;;;;;;4.70;1.92;;;15.00;99.90;;;;;;5016849;28;20029;-86
2022/06/29 02:16:16;;;;;;;4.03;1.95;;;14.90;99.90;;;;;;5033072;28;20075;-86
2022/06/29 02:18:42;;;;;;;4.63;1.70;;;14.90;99.90;;;;;;5016442;28;20033;-85
2022/06/29 02:21:08;;;;;;;5.38;1.95;;;14.90;99.90;;;;;;5016475;28;20029;-86
2022/06/29 02:23:34;;;;;;;2.38;1.33;;;14.80;99.90;;;;;;5016513;28;20025;-86
2022/06/29 02:25:59;;;;;;;3.85;1.80;;;14.90;99.90;;;;;;5016410;28;20068;-86
2022/06/29 02:28:25;;;;;;;6.05;1.95;;;14.80;99.90;;;;;;5016449;28;20053;-86
2022/06/29 02:36:18;;;;;;;4.38;1.80;;;14.70;99.90;;;;;;5033974;28;20099;-86
2022/06/29 02:38:44;;;;;;;3.45;2.22;;;14.70;99.90;;;;;;5033814;28;20033;-86
2022/06/29 02:41:09;;;;;;;3.53;2.72;;;14.70;99.90;;;;;;5016338;28;20037;-86
2022/06/29 02:43:35;;;;;;;3.00;2.15;;;14.60;99.90;;;;;;5015926;28;20018;-86
2022/06/29 02:46:01;;;;;;;5.18;2.40;;;14.70;99.90;;;;;;5015465;28;20737;-86
2022/06/29 02:48:26;;;;;;;6.10;2.83;;;14.60;99.90;;;;;;5016241;28;20022;-86
2022/06/29 02:50:52;;;;;;;6.05;2.78;;;14.60;99.90;;;;;;5016159;28;20482;-86
2022/06/29 02:53:17;;;;;;;5.40;2.85;;;14.70;99.90;;;;;;5016138;28;20029;-86
2022/06/29 02:55:43;;;;;;;3.92;2.60;;;14.70;99.90;;;;;;5016113;28;20021;-86
2022/06/29 02:58:08;;;;;;;5.47;2.55;;;14.70;99.90;;;;;;5015959;28;20026;-87
2022/06/29 03:00:34;;;;;;;5.72;3.03;;;14.70;99.90;;;;;;5016163;28;20072;-86
2022/06/29 03:03:00;;;;;;;3.75;2.85;;;14.70;99.90;;;;;;5016056;28;20026;-86
2022/06/29 03:05:25;;;;;;;5.30;2.78;;;14.70;99.90;;;;;;5015875;28;20079;-85
2022/06/29 03:07:51;;;;;;;4.03;3.13;;;14.70;99.90;;;;;;5016031;28;20060;-87
2022/06/29 03:10:16;;;;;;;5.32;3.30;;;14.70;99.90;;;;;;5015878;28;20036;-86
2022/06/29 03:12:42;;;;;;;5.07;3.13;;;14.60;99.90;;;;;;5033764;28;20032;-86
2022/06/29 03:15:08;;;;;;;2.85;2.50;;;14.70;99.90;;;;;;5015721;28;20041;-86
2022/06/29 03:17:33;;;;;;;5.47;4.00;;;14.60;99.90;;;;;;5015757;28;20393;-86
2022/06/29 03:19:59;;;;;;;5.90;3.40;;;14.60;99.90;;;;;;5015822;28;20033;-86
2022/06/29 03:22:25;;;;;;;4.57;3.00;;;14.60;99.90;;;;;;5016063;28;20026;-86
2022/06/29 03:24:50;;;;;;;5.32;3.15;;;14.50;99.90;;;;;;5016091;28;20033;-86
2022/06/29 03:27:16;;;;;;;4.78;3.30;;;14.50;99.90;;;;;;5015838;28;20031;-86
2022/06/29 03:29:41;;;;;;;5.43;3.78;;;14.50;99.90;;;;;;5015672;28;20084;-86
2022/06/29 03:32:08;;;;;;;5.93;3.00;;;14.40;99.90;;;;;;5015948;28;20026;-86
2022/06/29 03:34:33;;;;;;;5.05;3.45;;;14.40;99.90;;;;;;5015706;28;20091;-86
2022/06/29 03:36:59;;;;;;;6.13;3.50;;;14.40;99.90;;;;;;5015568;28;20053;-86
2022/06/29 03:39:24;;;;;;;3.80;3.50;;;14.40;99.90;;;;;;5015832;28;20378;-86
2022/06/29 03:41:50;;;;;;;5.55;4.15;;;14.30;99.90;;;;;;5015792;28;20028;-86
2022/06/29 03:44:16;;;;;;;10.20;4.32;;;14.30;99.90;;;;;;5015662;28;20031;-86
2022/06/29 03:46:41;;;;;;;8.23;4.35;;;14.20;99.90;;;;;;5015760;28;20021;-86
2022/06/29 03:49:07;;;;;;;7.80;3.88;;;14.30;99.90;;;;;;5015693;28;20070;-86
2022/06/29 03:51:33;;;;;;;6.97;4.50;;;14.20;99.90;;;;;;5015644;28;20034;-86
2022/06/29 03:53:58;;;;;;;5.00;4.35;;;14.20;99.90;;;;;;5015467;28;20244;-86
2022/06/29 03:56:24;;;;;;;7.15;4.60;;;14.20;99.90;;;;;;5016041;28;20492;-85
2022/06/29 03:58:50;;;;;;;6.57;3.97;;;14.30;99.90;;;;;;5018345;28;20120;-85
2022/06/29 04:01:15;;;;;;;6.28;4.15;;;14.30;99.90;;;;;;5019167;28;20045;-86
2022/06/29 04:03:41;;;;;;;6.38;4.93;;;14.30;99.90;;;;;;5019159;28;20047;-86
2022/06/29 04:06:07;;;;;;;5.22;4.53;;;14.30;99.90;;;;;;5018919;28;20022;-86
2022/06/29 04:08:33;;;;;;;5.30;4.50;;;14.40;99.90;;;;;;5035784;28;20021;-85
2022/06/29 04:10:58;;;;;;;6.32;4.40;;;14.40;99.90;;;;;;5038816;28;20052;-86
2022/06/29 04:13:24;;;;;;;7.63;5.50;;;14.40;99.90;;;;;;5038823;28;20054;-85
2022/06/29 04:15:50;;;;;;;6.35;5.60;;;14.50;99.90;;;;;;5038542;28;20044;-86
2022/06/29 04:18:15;;;;;;;8.55;5.07;;;14.50;99.90;;;;;;5038539;28;20051;-86
2022/06/29 04:23:25;;;;;;;10.02;4.65;;;14.60;99.90;;;;;;5056571;28;20060;-85
2022/06/29 04:25:51;;;;;;;7.13;5.60;;;14.60;99.90;;;;;;5038648;28;20461;-86
2022/06/29 04:28:16;;;;;;;6.93;5.28;;;14.60;99.90;;;;;;5055813;28;20088;-86
2022/06/29 04:30:42;;;;;;;5.53;5.03;;;14.70;99.90;;;;;;5056250;28;20527;-86
2022/06/29 04:33:07;;;;;;;6.47;5.30;;;14.70;99.90;;;;;;5056305;28;20028;-86
2022/06/29 04:35:33;;;;;;;6.22;5.25;;;14.80;99.90;;;;;;5037985;28;20017;-86
2022/06/29 04:38:00;;;;;;;6.03;5.30;;;14.80;99.90;;;;;;5037891;28;20029;-86
2022/06/29 04:40:26;;;;;;;6.68;4.80;;;14.80;99.90;;;;;;5055944;28;20029;-86
2022/06/29 04:42:51;;;;;;;5.93;4.72;;;14.80;99.90;;;;;;5038132;28;20028;-86
2022/06/29 04:48:12;;;;;;;5.22;4.47;;;15.00;99.90;;;;;;5001957;28;20489;-86
2022/06/29 04:50:37;;;;;;;5.35;4.47;;;15.00;99.90;;;;;;5037678;28;20053;-86
2022/06/29 04:53:03;;;;;;;6.35;4.47;;;15.10;99.90;;;;;;5037805;28;20029;-86
2022/06/29 04:55:29;;;;;;;6.93;4.80;;;15.20;99.90;;;;;;5037817;28;20403;-85
2022/06/29 04:57:55;;;;;;;3.22;2.92;;;15.40;99.90;;;;;;5037674;28;20048;-86
2022/06/29 05:00:21;;;;;;;4.63;3.15;;;15.80;99.90;;;;;;5037657;28;20496;-86
2022/06/29 05:02:46;;;;;;;2.55;2.17;;;16.20;99.90;;;;;;5037721;28;20025;-86
2022/06/29 05:05:12;;;;;;;4.88;2.55;;;16.70;99.90;;;;;;5036752;28;20020;-86
2022/06/29 05:07:37;;;;;;;4.50;2.38;;;17.10;99.90;;;;;;5017923;28;20433;-85
2022/06/29 05:10:03;;;;;;;2.80;2.33;;;17.50;99.90;;;;;;5016690;28;20021;-86
2022/06/29 05:12:29;;;;;;;4.95;1.90;;;17.90;99.90;;;;;;5017664;28;20448;-86
2022/06/29 05:14:54;;;;;;;2.83;2.00;;;18.30;99.90;;;;;;5017911;28;20036;-86
2022/06/29 05:17:20;;;;;;;2.90;1.70;;;18.70;99.90;;;;;;5017804;28;20018;-86
2022/06/29 05:19:46;;;;;;;3.58;1.77;;;19.10;99.90;;;;;;5017639;28;20413;-86
2022/06/29 05:22:12;;;;;;;3.75;1.52;;;19.40;99.90;;;;;;5017505;28;20033;-86
2022/06/29 05:24:37;;;;;;;2.95;1.25;;;19.70;99.90;;;;;;5017387;28;20029;-86
2022/06/29 05:27:03;;;;;;;3.15;1.50;;;20.10;99.90;;;;;;5017636;28;20021;-86
2022/06/29 05:29:29;;;;;;;3.22;1.92;;;20.50;99.90;;;;;;5017334;28;20078;-87
2022/06/29 05:31:54;;;;;;;2.92;1.35;;;20.80;99.90;;;;;;5017498;28;20485;-86
2022/06/29 05:34:20;;;;;;;4.97;1.25;;;21.10;99.90;;;;;;5017582;28;20022;-87
2022/06/29 05:36:45;;;;;;;2.33;1.30;;;21.40;99.90;;;;;;5017246;28;20041;-87
2022/06/29 05:39:11;;;;;;;2.92;0.90;;;21.60;99.90;;;;;;5017058;28;20049;-86
2022/06/29 05:41:36;;;;;;;3.63;1.20;;;21.80;99.90;;;;;;5017019;28;20028;-86
2022/06/29 05:44:04;;;;;;;4.05;1.20;;;22.00;99.90;;;;;;5017177;28;20036;-85
2022/06/29 05:46:30;;;;;;;3.10;1.20;;;22.30;99.90;;;;;;5017287;28;20025;-86
2022/06/29 05:48:56;;;;;;;9.52;1.50;;;22.50;99.90;;;;;;5016931;28;20042;-86
2022/06/29 05:51:21;;;;;;;2.58;1.00;;;22.70;99.90;;;;;;5017060;28;20400;-86
2022/06/29 05:53:47;;;;;;;2.17;0.95;;;22.80;99.90;;;;;;5034486;28;20021;-85
2022/06/29 05:56:13;;;;;;;7.30;1.23;;;22.90;99.40;;;;;;5016847;28;20024;-86
2022/06/29 05:58:38;;;;;;;2.92;0.90;;;22.90;98.70;;;;;;5016911;28;20036;-86
2022/06/29 06:01:08;;;;;;;4.13;1.10;;;22.90;98.10;;;;;;5016848;28;20025;-86
2022/06/29 06:03:34;;;;;;;6.20;1.00;;;22.80;97.50;;;;;;5034572;28;20539;-86
2022/06/29 06:06:00;;;;;;;4.18;1.02;;;22.80;97.00;;;;;;5034008;28;20022;-86
2022/06/29 06:08:25;;;;;;;3.40;0.98;;;22.70;96.50;;;;;;5016773;28;20022;-86
2022/06/29 06:10:51;;;;;;;7.20;1.52;;;22.70;96.20;;;;;;5016562;28;20029;-86
2022/06/29 06:13:16;;;;;;;5.70;1.20;;;22.70;95.70;;;;;;5016949;28;20025;-86
2022/06/29 06:15:42;;;;;;;4.68;1.27;;;22.60;95.30;;;;;;5016642;28;20040;-86
2022/06/29 06:18:07;;;;;;;5.18;1.20;;;22.60;94.80;;;;;;5016408;28;20060;-86
2022/06/29 06:20:33;;;;;;;5.13;1.50;;;22.50;94.60;;;;;;5032554;28;20026;-86
2022/06/29 06:23:00;;;;;;;5.60;1.40;;;22.50;94.50;;;;;;5016498;28;20155;-87
2022/06/29 06:25:25;;;;;;;6.28;1.33;;;22.50;94.50;;;;;;5016201;28;20657;-87
2022/06/29 06:27:51;;;;;;;4.32;1.30;;;22.50;94.40;;;;;;5016519;28;20433;-86
2022/06/29 06:30:16;;;;;;;5.97;1.50;;;22.50;94.30;;;;;;5016470;28;20018;-86
2022/06/29 06:32:42;;;;;;;6.45;1.50;;;22.50;94.30;;;;;;5016433;28;20025;-86
2022/06/29 06:35:08;;;;;;;4.80;1.35;;;22.50;94.20;;;;;;5016335;28;20087;-86
2022/06/29 06:37:33;;;;;;;5.55;1.80;;;22.60;94.00;;;;;;5016047;28;20050;-86
2022/06/29 06:42:43;;;;;;;5.65;1.05;;;22.70;94.00;;;;;;5034175;28;20088;-87
2022/06/29 06:45:08;;;;;;;5.90;2.00;;;22.80;94.00;;;;;;5016207;28;20030;-86
2022/06/29 06:47:35;;;;;;;6.32;1.52;;;22.80;93.90;;;;;;5015969;28;20021;-85
2022/06/29 06:50:00;;;;;;;5.03;1.40;;;22.90;93.30;;;;;;5032889;28;20120;-86
2022/06/29 06:52:26;;;;;;;3.80;1.33;;;22.90;93.10;;;;;;5016096;28;20108;-86
2022/06/29 06:54:51;;;;;;;8.43;1.55;;;22.90;92.90;;;;;;5015973;28;20497;-86
2022/06/29 06:57:17;;;;;;;4.97;1.20;;;23.00;92.30;;;;;;5016128;28;20112;-86
2022/06/29 06:59:42;;;;;;;5.22;1.10;;;23.00;92.00;;;;;;5016232;28;20086;-86
2022/06/29 07:02:08;;;;;;;3.85;0.82;;;23.00;92.10;;;;;;5016150;28;20036;-86
2022/06/29 07:04:33;;;;;;;3.10;1.05;;;23.00;92.10;;;;;;5016042;28;20032;-86
2022/06/29 07:06:59;;;;;;;5.00;1.20;;;23.00;92.00;;;;;;5015786;28;20029;-86
2022/06/29 07:09:25;;;;;;;5.70;1.10;;;23.10;92.00;;;;;;5015962;28;20025;-87
2022/06/29 07:11:50;;;;;;;6.30;1.48;;;23.10;91.80;;;;;;5015961;28;20022;-86
2022/06/29 07:14:16;;;;;;;3.38;0.77;;;23.20;91.50;;;;;;5015851;28;20378;-86
2022/06/29 07:16:42;;;;;;;4.80;0.93;;;23.30;91.80;;;;;;5015896;28;20116;-86
2022/06/29 07:19:07;;;;;;;4.43;1.13;;;23.40;91.80;;;;;;5015713;28;20552;-86
2022/06/29 07:21:33;;;;;;;4.18;1.05;;;23.50;91.30;;;;;;5015799;28;20030;-85
2022/06/29 07:24:00;;;;;;;3.47;0.82;;;23.50;91.10;;;;;;5015630;28;20029;-85
2022/06/29 07:26:26;;;;;;;3.90;1.45;;;23.60;90.70;;;;;;5016205;28;20025;-86
2022/06/29 07:28:51;;;;;;;4.55;1.30;;;23.80;90.40;;;;;;5015853;28;20018;-86
2022/06/29 07:31:18;;;;;;;3.40;1.27;;;23.90;89.70;;;;;;5015798;28;20029;-86
2022/06/29 07:33:43;;;;;;;4.85;1.23;;;24.10;89.20;;;;;;5018982;28;20112;-86
2022/06/29 07:36:09;;;;;;;4.40;1.13;;;24.20;89.30;;;;;;5016360;28;20537;-86
2022/06/29 07:38:35;;;;;;;3.33;1.17;;;24.40;89.10;;;;;;5016102;28;20076;-87
2022/06/29 07:41:01;;;;;;;3.58;1.10;;;24.60;88.30;;;;;;5016696;28;20025;-86
2022/06/29 07:43:28;;;;;;;2.47;1.08;;;24.80;87.90;;;;;;5016334;28;20026;-87
2022/06/29 07:45:56;;;;;;;3.40;1.20;;;24.90;87.30;;;;;;5016329;28;20030;-87
2022/06/29 07:48:21;;;;;;;4.32;0.80;;;25.00;86.70;;;;;;5016364;28;20141;-86
2022/06/29 07:50:47;;;;;;;2.83;1.00;;;25.10;85.70;;;;;;5017196;28;20049;-86
2022/06/29 07:53:12;;;;;;;2.70;0.98;;;25.20;84.60;;;;;;5032397;28;20117;-86
2022/06/29 07:55:38;;;;;;;3.40;1.10;;;25.20;83.60;;;;;;5016128;28;20474;-87
2022/06/29 07:58:03;;;;;;;4.20;1.00;;;25.30;83.10;;;;;;5016063;28;20057;-86
2022/06/29 08:00:29;;;;;;;2.78;1.08;;;25.20;82.90;;;;;;5015950;28;20037;-86
2022/06/29 08:02:55;;;;;;;3.70;1.23;;;25.20;83.60;;;;;;5015783;28;20033;-86
2022/06/29 08:05:22;;;;;;;2.50;1.10;;;25.30;83.40;;;;;;5017131;28;20057;-87
2022/06/29 08:07:48;;;;;;;4.00;1.00;;;25.40;84.20;;;;;;5016972;28;20108;-86
2022/06/29 08:10:13;;;;;;;2.50;0.93;;;25.40;82.80;;;;;;5015661;28;20108;-87
2022/06/29 08:12:39;;;;;;;4.75;0.77;;;25.40;82.30;;;;;;5032419;28;20482;-86
2022/06/29 08:15:05;;;;;;;3.03;0.90;;;25.30;82.40;;;;;;5016754;28;20100;-86
2022/06/29 08:17:31;;;;;;;7.07;1.27;;;25.30;82.30;;;;;;5032013;28;20029;-86
2022/06/29 08:19:56;;;;;;;3.28;0.90;;;25.40;81.20;;;;;;5016528;28;20037;-86
2022/06/29 08:22:22;;;;;;;2.72;1.10;;;25.40;81.60;;;;;;5016450;28;20026;-87
2022/06/29 08:24:47;;;;;;;3.75;1.17;;;25.40;80.90;;;;;;5016823;28;20030;-86
2022/06/29 08:27:14;;;;;;;4.53;1.25;;;25.40;80.40;;;;;;5015067;28;20516;-86
2022/06/29 08:29:39;;;;;;;3.78;0.98;;;25.50;80.50;;;;;;5016515;28;20090;-87
2022/06/29 08:32:05;;;;;;;3.92;0.90;;;25.60;80.00;;;;;;5016482;28;20030;-87
2022/06/29 08:34:39;;;;;;;3.58;1.02;;;25.70;80.90;;;;;;5016492;28;20108;-86
2022/06/29 08:37:06;;;;;;;6.32;1.23;;;25.80;79.50;;;;;;5030585;28;20044;-86
2022/06/29 08:39:31;;;;;;;3.67;1.10;;;25.90;79.40;;;;;;5036104;28;20033;-86
2022/06/29 08:42:03;;;;;;;4.03;1.20;;;26.00;78.60;;;;;;5018611;28;20017;-86
2022/06/29 08:44:33;;;;;;;3.90;1.02;;;26.10;79.10;;;;;;5035136;28;20096;-86
2022/06/29 08:47:01;;;;;;;2.15;0.88;;;26.20;79.10;;;;;;5018677;28;20032;-86
2022/06/29 08:49:26;;;;;;;3.55;1.15;;;26.30;78.10;;;;;;5034836;28;20029;-87
2022/06/29 08:51:56;;;;;;;2.95;0.90;;;26.30;77.60;;;;;;5018533;28;20021;-87
2022/06/29 08:54:26;;;;;;;2.50;0.82;;;26.40;78.60;;;;;;5035801;28;20022;-86
2022/06/29 08:56:54;;;;;;;2.40;0.77;;;26.50;77.20;;;;;;5036098;28;20104;-87
2022/06/29 08:59:22;;;;;;;3.22;1.13;;;26.60;76.50;;;;;;5035934;28;20107;-87
2022/06/29 09:01:51;;;;;;;3.28;1.15;;;26.60;76.50;;;;;;5018005;28;20470;-86
2022/06/29 09:04:18;;;;;;;6.00;1.13;;;26.50;75.50;;;;;;5017882;28;20022;-86
2022/06/29 09:06:45;;;;;;;5.63;1.08;;;26.50;75.60;;;;;;5017798;28;20116;-86
2022/06/29 09:09:11;;;;;;;6.28;1.30;;;26.50;76.30;;;;;;5035565;28;20014;-86
2022/06/29 09:11:42;;;;;;;4.57;1.05;;;26.60;77.00;;;;;;5035447;28;20053;-86
2022/06/29 09:14:16;;;;;;;3.45;0.95;;;26.70;76.70;;;;;;5017834;28;20018;-86
2022/06/29 09:16:56;;;;;;;4.93;1.45;;;26.90;75.80;;;;;;5035151;28;20017;-86
2022/06/29 09:19:25;;;;;;;4.53;1.00;;;27.00;75.80;;;;;;5035458;28;20060;-87
2022/06/29 09:21:53;;;;;;;5.03;1.00;;;27.10;74.90;;;;;;5017432;28;20036;-86
2022/06/29 09:24:21;;;;;;;7.10;1.08;;;27.30;75.00;;;;;;5035233;28;20394;-85
2022/06/29 09:27:02;;;;;;;3.25;0.90;;;27.50;73.40;;;;;;5035257;28;20014;-86
2022/06/29 09:29:30;;;;;;;2.30;0.70;;;27.70;73.20;;;;;;5034941;28;20029;-85
2022/06/29 09:32:04;;;;;;;2.60;0.88;;;27.80;73.20;;;;;;5017612;28;20030;-86
2022/06/29 09:34:33;;;;;;;4.45;0.85;;;28.00;72.30;;;;;;5033932;28;20056;-87
2022/06/29 09:37:01;;;;;;;2.97;0.50;;;28.20;71.30;;;;;;5033767;28;20056;-87
2022/06/29 09:39:37;;;;;;;2.20;0.52;;;28.30;70.10;;;;;;5034732;28;20038;-86
2022/06/29 09:42:05;;;;;;;2.35;0.60;;;28.40;68.80;;;;;;5034928;28;20025;-86
2022/06/29 09:44:31;;;;;;;2.78;0.80;;;28.60;68.30;;;;;;5017331;28;20024;-86
2022/06/29 09:46:58;;;;;;;4.93;0.60;;;28.70;68.20;;;;;;5034802;28;20021;-86
2022/06/29 09:49:26;;;;;;;3.72;1.35;;;28.80;67.00;;;;;;5017480;28;20501;-86
2022/06/29 09:51:56;;;;;;;3.33;0.80;;;28.90;67.10;;;;;;5017087;28;20114;-87
2022/06/29 09:54:32;;;;;;;2.92;0.50;;;28.90;66.10;;;;;;5016942;28;20025;-86
2022/06/29 09:56:59;;;;;;;2.65;0.75;;;28.90;65.00;;;;;;5034639;28;20021;-86
2022/06/29 10:05:06;;;;;;;2.20;0.60;;;28.90;65.90;;;;;;5034599;28;20088;-86
2022/06/29 10:07:33;;;;;;;3.50;0.60;;;28.90;65.60;;;;;;5016973;28;20498;-86
2022/06/29 10:10:00;;;;;;;4.05;0.60;;;28.80;66.70;;;;;;5016690;28;20061;-86
2022/06/29 10:16:02;;;;;;;3.95;0.40;;;28.70;64.90;;;;;;5034389;28;20040;-86
2022/06/29 10:18:40;;;;;;;3.55;0.38;;;28.80;63.90;;;;;;5033076;28;20022;-86
2022/06/29 10:21:19;;;;;;;2.92;0.70;;;28.80;63.10;;;;;;5034469;28;20175;-86
2022/06/29 10:23:53;;;;;;;1.42;0.50;;;28.80;62.60;;;;;;5016460;28;20116;-86
2022/06/29 10:26:32;;;;;;;3.58;0.63;;;28.80;62.50;;;;;;5034185;28;20021;-86
2022/06/29 10:29:18;;;;;;;1.15;0.30;;;28.80;62.80;;;;;;5033163;28;20032;-86
2022/06/29 10:32:13;;;;;;;3.03;0.50;;;28.80;61.10;;;;;;5006720;28;20044;-87
2022/06/29 10:37:24;;;;;;;1.83;0.40;;;28.80;59.60;;;;;;5033926;28;20103;-87
2022/06/29 10:39:49;;;;;;;2.70;0.80;;;28.70;58.80;;;;;;5034585;28;20041;-86
2022/06/29 10:45:22;;;;;;;2.00;0.50;;;28.60;59.20;;;;;;5034036;28;20520;-86
2022/06/29 10:47:57;;;;;;;2.10;0.50;;;28.50;59.90;;;;;;5032955;28;20025;-86
2022/06/29 10:50:29;;;;;;;2.83;0.50;;;28.60;60.60;;;;;;5032879;28;20552;-86
2022/06/29 10:52:57;;;;;;;14.13;1.20;;;28.70;59.70;;;;;;5016078;28;20025;-87
2022/06/29 10:55:24;;;;;;;1.92;0.40;;;28.60;59.60;;;;;;5016383;28;20358;-87
2022/06/29 10:57:51;;;;;;;1.30;0.50;;;28.60;59.60;;;;;;5032481;28;20029;-87
2022/06/29 11:00:20;;;;;;;4.55;0.65;;;28.60;59.10;;;;;;5032534;28;20029;-87
2022/06/29 11:02:46;;;;;;;1.38;0.30;;;28.60;59.70;;;;;;5032768;28;20386;-87
2022/06/29 11:05:12;;;;;;;1.75;0.30;;;28.60;58.10;;;;;;5032719;28;20021;-86
2022/06/29 11:13:11;;;;;;;2.85;0.50;;;28.70;56.80;;;;;;5040788;28;20105;-87
2022/06/29 11:15:41;;;;;;;1.23;0.40;;;28.80;57.50;;;;;;5040317;28;20021;-86
2022/06/29 11:18:34;;;;;;;1.63;0.30;;;28.90;57.00;;;;;;5039112;28;20039;-86
2022/06/29 11:21:04;;;;;;;1.95;0.30;;;29.00;58.20;;;;;;5032365;28;20060;-86
2022/06/29 11:23:34;;;;;;;3.53;0.40;;;29.10;57.30;;;;;;5040791;28;20021;-87
2022/06/29 11:26:03;;;;;;;1.80;0.40;;;29.10;57.10;;;;;;5040472;28;20033;-87
2022/06/29 11:28:30;;;;;;;4.10;0.50;;;29.10;57.30;;;;;;5040098;28;20021;-87
2022/06/29 11:31:09;;;;;;;1.48;0.40;;;29.00;57.60;;;;;;5039294;28;20092;-87
2022/06/29 11:33:37;;;;;;;0.90;0.30;;;29.00;56.40;;;;;;5039241;28;20053;-87
2022/06/29 11:36:06;;;;;;;1.70;0.40;;;29.00;56.70;;;;;;5022645;28;20080;-86
2022/06/29 11:38:36;;;;;;;1.30;0.30;;;29.00;56.80;;;;;;5039000;28;20021;-87
2022/06/29 11:41:13;;;;;;;1.52;0.20;;;28.90;55.70;;;;;;5039027;28;20370;-87
2022/06/29 11:43:39;;;;;;;1.92;0.30;;;28.90;55.70;;;;;;5039114;28;20501;-86
2022/06/29 11:46:05;;;;;;;1.23;0.30;;;28.90;55.40;;;;;;5039231;28;20068;-86
2022/06/29 11:48:31;;;;;;;1.83;0.40;;;29.00;55.00;;;;;;5039161;28;20044;-87
2022/06/29 11:50:59;;;;;;;2.22;0.22;;;29.10;54.60;;;;;;5039119;28;20026;-87
2022/06/29 11:53:41;;;;;;;1.02;0.30;;;29.30;53.40;;;;;;5038710;28;20026;-86
2022/06/29 11:56:11;;;;;;;1.67;0.20;;;29.50;53.60;;;;;;5042240;28;20032;-85
2022/06/29 11:58:39;;;;;;;1.98;0.20;;;29.70;53.60;;;;;;5042761;28;20056;-87
2022/06/29 12:01:11;;;;;;;1.73;0.30;;;30.00;53.00;;;;;;5041904;28;20024;-87
2022/06/29 12:03:38;;;;;;;1.10;0.28;;;30.10;53.20;;;;;;5042058;28;20021;-87
2022/06/29 12:06:03;;;;;;;1.75;0.20;;;30.40;53.00;;;;;;5041846;28;20031;-86
2022/06/29 12:08:32;;;;;;;0.68;0.20;;;30.60;52.90;;;;;;5042329;28;20032;-87
2022/06/29 12:10:58;;;;;;;0.28;0.15;;;30.80;52.10;;;;;;5042139;28;20029;-87
2022/06/29 12:13:24;;;;;;;0.68;0.20;;;30.80;51.90;;;;;;5042236;28;20024;-87
2022/06/29 12:15:51;;;;;;;2.13;0.20;;;30.80;51.80;;;;;;5042013;28;20028;-87
2022/06/29 12:18:16;;;;;;;1.75;0.20;;;30.80;51.30;;;;;;5041059;28;20032;-87
2022/06/29 12:20:43;;;;;;;1.08;0.20;;;30.80;51.90;;;;;;5038862;28;20029;-86
2022/06/29 12:23:08;;;;;;;2.58;0.30;;;30.90;50.90;;;;;;5038849;28;20396;-87
2022/06/29 12:25:34;;;;;;;0.68;0.20;;;30.70;51.20;;;;;;5038650;28;20025;-86
2022/06/29 12:28:00;;;;;;;0.50;0.20;;;30.80;50.60;;;;;;5038825;28;20031;-87
2022/06/29 12:30:26;;;;;;;1.58;0.30;;;30.70;51.40;;;;;;5038648;28;20032;-86
2022/06/29 12:32:52;;;;;;;2.33;0.20;;;30.70;51.00;;;;;;5038702;28;20017;-85
2022/06/29 12:35:17;;;;;;;2.53;0.30;;;30.70;50.40;;;;;;5038567;28;20029;-86
2022/06/29 12:37:44;;;;;;;0.82;0.30;;;30.60;51.20;;;;;;5038624;28;20053;-87
2022/06/29 12:40:11;;;;;;;1.83;0.30;;;30.60;51.30;;;;;;5038888;28;20484;-87
2022/06/29 12:42:37;;;;;;;2.40;0.30;;;30.70;52.00;;;;;;5038206;28;20070;-86
2022/06/29 12:45:04;;;;;;;0.88;0.30;;;30.90;51.70;;;;;;5056876;28;20029;-87
2022/06/29 12:47:30;;;;;;;2.50;0.52;;;31.00;51.00;;;;;;5038355;28;20082;-86
2022/06/29 12:49:56;;;;;;;2.25;0.32;;;31.20;50.30;;;;;;5037990;28;20033;-86
2022/06/29 12:52:23;;;;;;;1.48;0.35;;;31.40;51.60;;;;;;5038456;28;20392;-86
2022/06/29 12:54:49;;;;;;;0.88;0.30;;;31.70;51.50;;;;;;5049269;28;20206;-86
2022/06/29 12:57:16;;;;;;;1.05;0.38;;;31.90;51.00;;;;;;5036068;28;20049;-87
2022/06/29 12:59:42;;;;;;;1.75;0.30;;;32.00;50.60;;;;;;5018443;28;20132;-87
2022/06/29 13:02:08;;;;;;;1.92;0.30;;;32.20;50.20;;;;;;5018574;28;20017;-86
2022/06/29 13:04:34;;;;;;;0.93;0.30;;;32.40;51.20;;;;;;5018400;28;20032;-86
2022/06/29 13:06:59;;;;;;;3.03;0.20;;;32.50;49.70;;;;;;5017946;28;20029;-86
2022/06/29 13:09:25;;;;;;;1.00;0.25;;;32.50;49.10;;;;;;5018497;28;20064;-87
2022/06/29 13:11:51;;;;;;;1.25;0.30;;;32.40;48.80;;;;;;5017924;28;20025;-86
2022/06/29 13:14:16;;;;;;;1.70;0.30;;;32.60;48.80;;;;;;5017834;28;20124;-86
2022/06/29 13:16:42;;;;;;;3.33;0.30;;;32.70;49.90;;;;;;5018066;28;20109;-87
2022/06/29 13:19:08;;;;;;;1.05;0.35;;;32.60;48.70;;;;;;5017920;28;20025;-86